AAL2043 KLGA-KORD
Flight info
| Callsign | AAL2043 |
|---|---|
| Flight time | N/A |
| Altitude | 32000 |
| Route | COATE Q436 KAYYS WYNDE3 |
| Aircraft | B38M/M-SDE1FGHILORVWXY/HB1 |
Departure
| Time | 2026-05-05 21:52 |
|---|---|
| Airport | LaGuardia Airport (KLGA) |
Arrival
| Time | N/A |
|---|---|
| Airport | Chicago O'Hare International Airport (KORD) |
| Time | Latitude | Longitude | Altitude | Speed | Heading |
|---|---|---|---|---|---|
| 2026-05-05 21:28 | 40.77620 | -73.87277 | 22 ft | 0 kts | 180° |
| 2026-05-05 21:44 | 40.77626 | -73.87277 | 22 ft | 2 kts | 180° |
| 2026-05-05 21:45 | 40.77645 | -73.87277 | 24 ft | 3 kts | 180° |
| 2026-05-05 21:45 | 40.77662 | -73.87278 | 24 ft | 3 kts | 167° |
| 2026-05-05 21:45 | 40.77679 | -73.87288 | 25 ft | 3 kts | 131° |
| 2026-05-05 21:45 | 40.77687 | -73.87309 | 24 ft | 3 kts | 99° |
| 2026-05-05 21:46 | 40.77688 | -73.87336 | 26 ft | 3 kts | 89° |
| 2026-05-05 21:46 | 40.77688 | -73.87358 | 26 ft | 1 kts | 93° |
| 2026-05-05 21:46 | 40.77688 | -73.87350 | 26 ft | 3 kts | 96° |
| 2026-05-05 21:46 | 40.77687 | -73.87325 | 26 ft | 3 kts | 81° |
| 2026-05-05 21:47 | 40.77691 | -73.87311 | 23 ft | 0 kts | 64° |
| 2026-05-05 21:49 | 40.77694 | -73.87304 | 24 ft | 2 kts | 64° |
| 2026-05-05 21:49 | 40.77712 | -73.87278 | 21 ft | 7 kts | 37° |
| 2026-05-05 21:49 | 40.77783 | -73.87269 | 16 ft | 12 kts | 6° |
| 2026-05-05 21:50 | 40.77851 | -73.87294 | 16 ft | 12 kts | 306° |
| 2026-05-05 21:50 | 40.77896 | -73.87389 | 17 ft | 13 kts | 301° |
| 2026-05-05 21:50 | 40.77949 | -73.87501 | 18 ft | 16 kts | 302° |
| 2026-05-05 21:50 | 40.78016 | -73.87641 | 17 ft | 20 kts | 303° |
| 2026-05-05 21:51 | 40.78092 | -73.87800 | 20 ft | 18 kts | 301° |
| 2026-05-05 21:51 | 40.78188 | -73.87860 | 16 ft | 15 kts | 16° |
| 2026-05-05 21:51 | 40.78192 | -73.87774 | 15 ft | 11 kts | 128° |
| 2026-05-05 21:51 | 40.78143 | -73.87672 | 14 ft | 17 kts | 122° |
| 2026-05-05 21:52 | 40.77513 | -73.86347 | 19 ft | 160 kts | 121° |
| 2026-05-05 21:52 | 40.76862 | -73.84965 | 522 ft | 185 kts | 124° |
| 2026-05-05 21:52 | 40.76159 | -73.83431 | 1078 ft | 212 kts | 128° |
| 2026-05-05 21:53 | 40.75330 | -73.81690 | 1727 ft | 231 kts | 129° |
| 2026-05-05 21:53 | 40.74445 | -73.79975 | 2682 ft | 223 kts | 141° |
| 2026-05-05 21:53 | 40.73185 | -73.79059 | 3427 ft | 198 kts | 180° |
| 2026-05-05 21:53 | 40.71884 | -73.79407 | 4070 ft | 194 kts | 220° |
| 2026-05-05 21:54 | 40.71173 | -73.80868 | 4804 ft | 194 kts | 245° |
| 2026-05-05 21:54 | 40.70525 | -73.82456 | 5671 ft | 197 kts | 238° |
| 2026-05-05 21:54 | 40.69780 | -73.83992 | 6659 ft | 200 kts | 236° |
| 2026-05-05 21:54 | 40.68976 | -73.85504 | 7540 ft | 203 kts | 235° |
| 2026-05-05 21:55 | 40.68151 | -73.87034 | 8429 ft | 206 kts | 244° |
| 2026-05-05 21:55 | 40.67768 | -73.88844 | 9323 ft | 208 kts | 266° |
| 2026-05-05 21:55 | 40.67949 | -73.90745 | 10152 ft | 213 kts | 284° |
| 2026-05-05 21:55 | 40.68569 | -73.92543 | 10981 ft | 218 kts | 292° |
| 2026-05-05 21:56 | 40.69274 | -73.94296 | 11751 ft | 221 kts | 293° |
| 2026-05-05 21:56 | 40.70025 | -73.96087 | 12530 ft | 225 kts | 294° |
| 2026-05-05 21:56 | 40.71028 | -73.97720 | 13288 ft | 237 kts | 312° |
| 2026-05-05 21:56 | 40.72335 | -73.99088 | 13995 ft | 241 kts | 311° |
| 2026-05-05 21:57 | 40.73451 | -74.00699 | 14655 ft | 237 kts | 300° |
| 2026-05-05 21:57 | 40.74446 | -74.02450 | 15324 ft | 240 kts | 301° |
| 2026-05-05 21:57 | 40.75463 | -74.04211 | 15967 ft | 243 kts | 301° |
| 2026-05-05 21:57 | 40.76505 | -74.05999 | 16590 ft | 248 kts | 302° |
| 2026-05-05 21:58 | 40.77550 | -74.07783 | 17196 ft | 251 kts | 302° |
| 2026-05-05 21:58 | 40.78627 | -74.09614 | 17806 ft | 254 kts | 302° |
| 2026-05-05 21:58 | 40.79717 | -74.11465 | 18367 ft | 257 kts | 302° |
| 2026-05-05 21:58 | 40.80821 | -74.13340 | 18891 ft | 260 kts | 302° |
| 2026-05-05 21:59 | 40.81933 | -74.15229 | 19429 ft | 262 kts | 302° |
| 2026-05-05 21:59 | 40.83054 | -74.17132 | 19954 ft | 264 kts | 303° |
| 2026-05-05 21:59 | 40.84184 | -74.19054 | 20474 ft | 266 kts | 303° |
| 2026-05-05 21:59 | 40.85324 | -74.20994 | 20985 ft | 268 kts | 303° |
| 2026-05-05 22:00 | 40.86458 | -74.22923 | 21465 ft | 272 kts | 303° |
| 2026-05-05 22:00 | 40.87623 | -74.24906 | 21955 ft | 274 kts | 303° |
| 2026-05-05 22:00 | 40.88814 | -74.26935 | 22208 ft | 287 kts | 303° |
| 2026-05-05 22:00 | 40.90078 | -74.29090 | 22287 ft | 305 kts | 303° |
| 2026-05-05 22:01 | 40.91416 | -74.31374 | 22362 ft | 324 kts | 303° |
| 2026-05-05 22:01 | 40.92836 | -74.33797 | 22401 ft | 342 kts | 303° |
| 2026-05-05 22:01 | 40.94329 | -74.36347 | 22437 ft | 360 kts | 304° |
| 2026-05-05 22:01 | 40.95898 | -74.39030 | 22476 ft | 377 kts | 304° |
| 2026-05-05 22:02 | 40.97534 | -74.41830 | 22530 ft | 393 kts | 304° |
| 2026-05-05 22:02 | 40.99241 | -74.44753 | 22591 ft | 408 kts | 304° |
| 2026-05-05 22:02 | 41.00969 | -74.47718 | 22927 ft | 414 kts | 304° |
| 2026-05-05 22:02 | 41.02729 | -74.50741 | 23464 ft | 416 kts | 305° |
| 2026-05-05 22:03 | 41.04505 | -74.53794 | 23848 ft | 420 kts | 305° |
| 2026-05-05 22:03 | 41.06286 | -74.56859 | 24328 ft | 421 kts | 305° |
| 2026-05-05 22:03 | 41.08077 | -74.59943 | 24771 ft | 423 kts | 304° |
| 2026-05-05 22:03 | 41.09871 | -74.63037 | 25224 ft | 424 kts | 305° |
| 2026-05-05 22:04 | 41.11671 | -74.66144 | 25672 ft | 426 kts | 305° |
| 2026-05-05 22:04 | 41.13446 | -74.69233 | 26093 ft | 427 kts | 302° |
| 2026-05-05 22:04 | 41.14969 | -74.72593 | 26544 ft | 425 kts | 297° |
| 2026-05-05 22:04 | 41.16442 | -74.75992 | 27112 ft | 423 kts | 298° |
| 2026-05-05 22:05 | 41.17908 | -74.79361 | 27716 ft | 420 kts | 298° |
| 2026-05-05 22:05 | 41.19365 | -74.82709 | 28334 ft | 417 kts | 297° |
| 2026-05-05 22:05 | 41.20810 | -74.86033 | 28994 ft | 413 kts | 297° |
| 2026-05-05 22:05 | 41.22239 | -74.89324 | 29650 ft | 410 kts | 297° |
| 2026-05-05 22:06 | 41.23657 | -74.92589 | 30205 ft | 406 kts | 297° |
| 2026-05-05 22:06 | 41.25042 | -74.95785 | 30695 ft | 403 kts | 297° |
| 2026-05-05 22:06 | 41.26434 | -74.99000 | 31186 ft | 400 kts | 297° |
| 2026-05-05 22:06 | 41.27816 | -75.02197 | 31645 ft | 398 kts | 297° |
| 2026-05-05 22:07 | 41.29199 | -75.05399 | 31839 ft | 399 kts | 297° |
| 2026-05-05 22:07 | 41.31931 | -75.11733 | 31847 ft | 393 kts | 297° |
| 2026-05-05 22:08 | 41.34689 | -75.18142 | 31830 ft | 406 kts | 297° |
| 2026-05-05 22:08 | 41.37520 | -75.24733 | 31841 ft | 411 kts | 297° |
| 2026-05-05 22:09 | 41.40335 | -75.31301 | 31828 ft | 411 kts | 297° |
| 2026-05-05 22:09 | 41.43165 | -75.37920 | 31794 ft | 411 kts | 297° |
| 2026-05-05 22:10 | 41.45990 | -75.44540 | 31818 ft | 411 kts | 297° |
| 2026-05-05 22:10 | 41.48468 | -75.51339 | 31805 ft | 407 kts | 288° |
| 2026-05-05 22:11 | 41.50486 | -75.58391 | 31796 ft | 406 kts | 289° |
| 2026-05-05 22:11 | 41.52496 | -75.65384 | 31799 ft | 406 kts | 289° |
| 2026-05-05 22:12 | 41.54514 | -75.72426 | 31788 ft | 406 kts | 289° |
| 2026-05-05 22:12 | 41.56528 | -75.79470 | 31805 ft | 406 kts | 288° |
| 2026-05-05 22:13 | 41.58542 | -75.86537 | 31800 ft | 408 kts | 288° |
| 2026-05-05 22:13 | 41.60540 | -75.93575 | 31803 ft | 408 kts | 288° |
| 2026-05-05 22:14 | 41.62545 | -76.00656 | 31802 ft | 408 kts | 288° |
| 2026-05-05 22:14 | 41.64548 | -76.07748 | 31797 ft | 408 kts | 288° |
| 2026-05-05 22:15 | 41.66545 | -76.14843 | 31829 ft | 408 kts | 288° |
| 2026-05-05 22:15 | 41.68536 | -76.21936 | 31804 ft | 407 kts | 288° |
| 2026-05-05 22:16 | 41.70509 | -76.28982 | 31797 ft | 407 kts | 287° |
| 2026-05-05 22:16 | 41.72491 | -76.36081 | 31801 ft | 407 kts | 287° |
| 2026-05-05 22:17 | 41.74468 | -76.43181 | 31807 ft | 407 kts | 287° |
| 2026-05-05 22:17 | 41.76442 | -76.50290 | 31803 ft | 407 kts | 287° |
| 2026-05-05 22:18 | 41.78397 | -76.57347 | 31802 ft | 406 kts | 287° |
| 2026-05-05 22:18 | 41.80358 | -76.64447 | 31804 ft | 406 kts | 287° |
| 2026-05-05 22:19 | 41.82315 | -76.71551 | 31796 ft | 406 kts | 287° |
| 2026-05-05 22:19 | 41.84267 | -76.78653 | 31798 ft | 406 kts | 287° |
| 2026-05-05 22:20 | 41.86198 | -76.85704 | 31811 ft | 406 kts | 287° |
| 2026-05-05 22:20 | 41.88141 | -76.92817 | 31805 ft | 406 kts | 286° |
| 2026-05-05 22:21 | 41.90074 | -76.99936 | 31803 ft | 406 kts | 286° |
| 2026-05-05 22:21 | 41.92005 | -77.07070 | 31807 ft | 407 kts | 286° |
| 2026-05-05 22:22 | 41.93932 | -77.14208 | 31809 ft | 406 kts | 286° |
| 2026-05-05 22:22 | 41.95842 | -77.21304 | 31808 ft | 407 kts | 286° |
| 2026-05-05 22:23 | 41.97759 | -77.28447 | 31796 ft | 406 kts | 285° |
| 2026-05-05 22:23 | 41.99673 | -77.35602 | 31812 ft | 407 kts | 286° |
| 2026-05-05 22:24 | 42.01594 | -77.42749 | 31801 ft | 406 kts | 286° |
| 2026-05-05 22:24 | 42.03523 | -77.49832 | 31809 ft | 407 kts | 286° |
| 2026-05-05 22:25 | 42.05466 | -77.56983 | 31811 ft | 407 kts | 286° |
| 2026-05-05 22:25 | 42.07401 | -77.64124 | 31814 ft | 406 kts | 286° |
| 2026-05-05 22:26 | 42.09328 | -77.71255 | 31818 ft | 405 kts | 286° |
| 2026-05-05 22:26 | 42.11249 | -77.78386 | 31813 ft | 405 kts | 286° |
| 2026-05-05 22:27 | 42.13166 | -77.85524 | 31838 ft | 405 kts | 285° |
| 2026-05-05 22:27 | 42.15066 | -77.92620 | 31838 ft | 405 kts | 285° |
| 2026-05-05 22:28 | 42.16976 | -77.99769 | 31843 ft | 406 kts | 285° |
| 2026-05-05 22:28 | 42.18887 | -78.06946 | 31845 ft | 407 kts | 285° |
| 2026-05-05 22:29 | 42.20790 | -78.14113 | 31855 ft | 407 kts | 285° |
| 2026-05-05 22:29 | 42.22690 | -78.21289 | 31862 ft | 406 kts | 285° |
| 2026-05-05 22:30 | 42.24557 | -78.28434 | 31868 ft | 406 kts | 284° |
| 2026-05-05 22:30 | 42.26357 | -78.35653 | 31869 ft | 406 kts | 284° |
| 2026-05-05 22:31 | 42.28150 | -78.42875 | 31874 ft | 406 kts | 284° |
| 2026-05-05 22:31 | 42.29937 | -78.50100 | 31861 ft | 406 kts | 284° |
| 2026-05-05 22:32 | 42.31723 | -78.57339 | 31860 ft | 406 kts | 284° |
| 2026-05-05 22:32 | 42.33490 | -78.64526 | 31846 ft | 406 kts | 284° |
| 2026-05-05 22:33 | 42.35265 | -78.71771 | 31841 ft | 406 kts | 284° |
| 2026-05-05 22:33 | 42.36734 | -78.77777 | 31831 ft | 405 kts | 284° |
| 2026-05-05 22:34 | 42.38792 | -78.86226 | 31839 ft | 405 kts | 284° |
| 2026-05-05 22:34 | 42.40085 | -78.92282 | 31827 ft | 399 kts | 273° |
| 2026-05-05 22:35 | 42.40544 | -78.99755 | 31857 ft | 399 kts | 272° |
| 2026-05-05 22:35 | 42.41129 | -79.08451 | 31876 ft | 398 kts | 272° |
| 2026-05-05 22:36 | 42.41615 | -79.15866 | 31871 ft | 395 kts | 272° |
| 2026-05-05 22:36 | 42.42018 | -79.22066 | 31868 ft | 395 kts | 272° |
| 2026-05-05 22:37 | 42.42491 | -79.29414 | 31874 ft | 395 kts | 272° |
| 2026-05-05 22:37 | 42.42962 | -79.36818 | 31869 ft | 395 kts | 272° |
| 2026-05-05 22:38 | 42.43429 | -79.44220 | 31886 ft | 395 kts | 272° |
| 2026-05-05 22:38 | 42.43888 | -79.51573 | 31871 ft | 391 kts | 271° |
| 2026-05-05 22:39 | 42.44341 | -79.58914 | 31857 ft | 391 kts | 271° |
| 2026-05-05 22:39 | 42.44789 | -79.66257 | 31855 ft | 391 kts | 271° |
| 2026-05-05 22:40 | 42.45233 | -79.73597 | 31878 ft | 391 kts | 271° |
| 2026-05-05 22:40 | 42.45669 | -79.80894 | 31891 ft | 391 kts | 271° |
| 2026-05-05 22:41 | 42.46104 | -79.88222 | 31881 ft | 390 kts | 271° |
| 2026-05-05 22:41 | 42.46532 | -79.95546 | 31876 ft | 390 kts | 271° |
| 2026-05-05 22:42 | 42.46955 | -80.02875 | 31879 ft | 390 kts | 271° |
| 2026-05-05 22:42 | 42.47374 | -80.10193 | 31889 ft | 390 kts | 271° |
| 2026-05-05 22:43 | 42.47788 | -80.17526 | 31888 ft | 390 kts | 271° |
| 2026-05-05 22:43 | 42.48195 | -80.24794 | 31879 ft | 390 kts | 271° |
| 2026-05-05 22:44 | 42.48600 | -80.32118 | 31871 ft | 390 kts | 271° |
| 2026-05-05 22:44 | 42.49000 | -80.39442 | 31872 ft | 390 kts | 271° |
| 2026-05-05 22:45 | 42.49395 | -80.46768 | 31864 ft | 390 kts | 271° |
| 2026-05-05 22:45 | 42.49783 | -80.54044 | 31889 ft | 390 kts | 271° |
| 2026-05-05 22:46 | 42.50169 | -80.61360 | 31867 ft | 389 kts | 271° |
| 2026-05-05 22:46 | 42.50533 | -80.68678 | 31862 ft | 389 kts | 270° |
| 2026-05-05 22:47 | 42.50774 | -80.76002 | 31865 ft | 389 kts | 270° |
| 2026-05-05 22:47 | 42.51004 | -80.83326 | 31862 ft | 389 kts | 269° |
| 2026-05-05 22:48 | 42.51227 | -80.90598 | 31861 ft | 389 kts | 269° |
| 2026-05-05 22:48 | 42.51447 | -80.97906 | 31858 ft | 387 kts | 269° |
| 2026-05-05 22:49 | 42.51662 | -81.05199 | 31857 ft | 387 kts | 269° |
| 2026-05-05 22:49 | 42.51872 | -81.12495 | 31855 ft | 387 kts | 269° |
| 2026-05-05 22:50 | 42.52077 | -81.19748 | 31849 ft | 387 kts | 269° |
| 2026-05-05 22:50 | 42.52309 | -81.27039 | 31843 ft | 388 kts | 273° |
| 2026-05-05 22:51 | 42.53137 | -81.34279 | 31849 ft | 387 kts | 275° |
| 2026-05-05 22:51 | 42.53961 | -81.41488 | 31854 ft | 387 kts | 275° |
| 2026-05-05 22:52 | 42.54781 | -81.48700 | 31855 ft | 387 kts | 275° |
| 2026-05-05 22:52 | 42.55591 | -81.55865 | 31847 ft | 387 kts | 275° |
| 2026-05-05 22:53 | 42.56402 | -81.63084 | 31846 ft | 387 kts | 275° |
| 2026-05-05 22:53 | 42.57207 | -81.70292 | 31842 ft | 386 kts | 275° |
| 2026-05-05 22:54 | 42.58005 | -81.77473 | 31845 ft | 385 kts | 275° |
| 2026-05-05 22:54 | 42.58794 | -81.84618 | 31832 ft | 385 kts | 275° |
| 2026-05-05 22:55 | 42.59582 | -81.91803 | 31831 ft | 385 kts | 275° |
| 2026-05-05 22:55 | 42.60367 | -81.98996 | 31833 ft | 385 kts | 275° |
| 2026-05-05 22:56 | 42.61148 | -82.06192 | 31825 ft | 385 kts | 274° |
| 2026-05-05 22:56 | 42.61918 | -82.13340 | 31829 ft | 385 kts | 274° |
| 2026-05-05 22:57 | 42.62690 | -82.20538 | 31824 ft | 385 kts | 274° |
| 2026-05-05 22:57 | 42.63456 | -82.27735 | 31824 ft | 385 kts | 274° |
| 2026-05-05 22:58 | 42.64219 | -82.34938 | 31828 ft | 385 kts | 274° |
| 2026-05-05 22:58 | 42.64973 | -82.42101 | 31839 ft | 385 kts | 275° |
| 2026-05-05 22:59 | 42.65725 | -82.49276 | 31821 ft | 383 kts | 275° |
| 2026-05-05 22:59 | 42.66468 | -82.56444 | 31811 ft | 384 kts | 274° |
| 2026-05-05 23:00 | 42.67578 | -82.67218 | 31804 ft | 383 kts | 274° |
| 2026-05-05 23:00 | 42.68308 | -82.74347 | 31805 ft | 383 kts | 274° |
| 2026-05-05 23:01 | 42.69033 | -82.81521 | 31810 ft | 382 kts | 275° |
| 2026-05-05 23:01 | 42.69748 | -82.88654 | 31807 ft | 381 kts | 275° |
| 2026-05-05 23:02 | 42.70459 | -82.95792 | 31803 ft | 381 kts | 275° |
| 2026-05-05 23:02 | 42.71186 | -83.02874 | 31812 ft | 381 kts | 276° |
| 2026-05-05 23:03 | 42.72021 | -83.09989 | 31834 ft | 381 kts | 276° |
| 2026-05-05 23:03 | 42.72856 | -83.17111 | 31856 ft | 381 kts | 276° |
| 2026-05-05 23:04 | 42.73682 | -83.24187 | 31841 ft | 378 kts | 276° |
| 2026-05-05 23:04 | 42.74502 | -83.31254 | 31842 ft | 378 kts | 276° |
| 2026-05-05 23:05 | 42.75312 | -83.38275 | 31843 ft | 378 kts | 276° |
| 2026-05-05 23:05 | 42.76123 | -83.45339 | 31826 ft | 378 kts | 276° |
| 2026-05-05 23:06 | 42.76930 | -83.52412 | 31831 ft | 378 kts | 276° |
| 2026-05-05 23:06 | 42.77729 | -83.59460 | 31840 ft | 375 kts | 275° |
| 2026-05-05 23:07 | 42.78516 | -83.66430 | 31835 ft | 375 kts | 275° |
| 2026-05-05 23:07 | 42.79303 | -83.73447 | 31839 ft | 375 kts | 275° |
| 2026-05-05 23:08 | 42.80086 | -83.80469 | 31838 ft | 375 kts | 275° |
| 2026-05-05 23:08 | 42.80866 | -83.87489 | 31838 ft | 375 kts | 275° |
| 2026-05-05 23:09 | 42.81635 | -83.94462 | 31852 ft | 374 kts | 275° |
| 2026-05-05 23:09 | 42.82400 | -84.01453 | 31843 ft | 373 kts | 275° |
| 2026-05-05 23:10 | 42.83162 | -84.08441 | 31843 ft | 373 kts | 275° |
| 2026-05-05 23:10 | 42.83919 | -84.15433 | 31844 ft | 373 kts | 275° |
| 2026-05-05 23:11 | 42.84668 | -84.22378 | 31849 ft | 373 kts | 275° |
| 2026-05-05 23:11 | 42.86274 | -84.40690 | 31862 ft | 373 kts | 275° |
| 2026-05-05 23:12 | 42.87536 | -84.68085 | 31802 ft | 371 kts | 242° |
| 2026-05-05 23:12 | 42.84025 | -84.74765 | 30013 ft | 369 kts | 249° |
| 2026-05-05 23:12 | 42.83732 | -84.81714 | 27890 ft | 387 kts | 280° |
| 2026-05-05 23:13 | 42.85427 | -84.88827 | 25626 ft | 396 kts | 273° |
| 2026-05-05 23:13 | 42.85417 | -84.92166 | 24663 ft | 394 kts | 258° |
| 2026-05-05 23:13 | 42.84779 | -84.95800 | 23666 ft | 397 kts | 256° |
| 2026-05-05 23:13 | 42.84259 | -84.99450 | 22761 ft | 398 kts | 258° |
| 2026-05-05 23:14 | 42.83798 | -85.03149 | 22003 ft | 393 kts | 259° |
| 2026-05-05 23:14 | 42.83371 | -85.06808 | 21267 ft | 389 kts | 259° |
| 2026-05-05 23:14 | 42.82964 | -85.10437 | 20564 ft | 385 kts | 260° |
| 2026-05-05 23:14 | 42.82572 | -85.14021 | 19916 ft | 380 kts | 261° |
| 2026-05-05 23:15 | 42.81282 | -85.29192 | 16470 ft | 373 kts | 265° |
| 2026-05-05 23:15 | 42.81014 | -85.56532 | 14799 ft | 366 kts | 270° |
| 2026-05-05 23:15 | 42.82817 | -85.83866 | 13552 ft | 364 kts | 271° |
| 2026-05-05 23:15 | 42.79414 | -86.09413 | 11426 ft | 350 kts | 242° |
| 2026-05-05 23:16 | 42.70749 | -86.22423 | 10145 ft | 302 kts | 216° |
| 2026-05-05 23:16 | 42.69125 | -86.24083 | 10050 ft | 285 kts | 228° |
| 2026-05-05 23:16 | 42.67797 | -86.25974 | 10063 ft | 269 kts | 232° |
| 2026-05-05 23:16 | 42.66667 | -86.27893 | 10055 ft | 255 kts | 231° |
| 2026-05-05 23:17 | 42.65523 | -86.29693 | 10028 ft | 249 kts | 237° |
| 2026-05-05 23:17 | 42.64628 | -86.31692 | 10027 ft | 248 kts | 238° |
| 2026-05-05 23:17 | 42.63661 | -86.33642 | 10022 ft | 249 kts | 238° |
| 2026-05-05 23:17 | 42.58414 | -86.45268 | 9994 ft | 248 kts | 247° |
| 2026-05-05 23:18 | 42.54397 | -86.63273 | 10110 ft | 251 kts | 257° |
| 2026-05-05 23:18 | 42.51272 | -86.81367 | 10036 ft | 248 kts | 253° |
| 2026-05-05 23:18 | 42.44613 | -86.97762 | 9759 ft | 263 kts | 224° |
| 2026-05-05 23:18 | 42.36422 | -87.01603 | 10450 ft | 284 kts | 192° |
| 2026-05-05 23:19 | 42.34590 | -87.02270 | 10307 ft | 266 kts | 211° |
| 2026-05-05 23:19 | 42.32975 | -87.03406 | 10208 ft | 259 kts | 216° |
| 2026-05-05 23:19 | 42.31472 | -87.04735 | 10098 ft | 257 kts | 218° |
| 2026-05-05 23:19 | 42.29989 | -87.06077 | 10041 ft | 256 kts | 220° |
| 2026-05-05 23:20 | 42.28661 | -87.07648 | 10028 ft | 253 kts | 228° |
| 2026-05-05 23:20 | 42.26167 | -87.11419 | 10027 ft | 252 kts | 236° |